sensor_id;sensor_type;location;lat;lon;timestamp;pressure;altitude;pressure_sealevel;temperature;humidity
49063;BME280;34876;51.464;-0.150;2023-04-24T00:03:36;100485.99;;;18.41;42.66
49063;BME280;34876;51.464;-0.150;2023-04-24T00:06:05;100486.50;;;18.43;42.61
49063;BME280;34876;51.464;-0.150;2023-04-24T00:08:34;100488.90;;;18.43;42.60
49063;BME280;34876;51.464;-0.150;2023-04-24T00:11:03;100487.67;;;18.42;42.62
49063;BME280;34876;51.464;-0.150;2023-04-24T00:13:38;100491.10;;;18.45;42.56
49063;BME280;34876;51.464;-0.150;2023-04-24T00:16:07;100494.80;;;18.41;42.63
49063;BME280;34876;51.464;-0.150;2023-04-24T00:18:35;100497.65;;;18.44;42.56
49063;BME280;34876;51.464;-0.150;2023-04-24T00:21:04;100504.02;;;18.43;42.57
49063;BME280;34876;51.464;-0.150;2023-04-24T00:23:33;100505.39;;;18.42;42.61
49063;BME280;34876;51.464;-0.150;2023-04-24T00:26:03;100509.11;;;18.43;42.57
49063;BME280;34876;51.464;-0.150;2023-04-24T00:28:38;100514.50;;;18.45;42.52
49063;BME280;34876;51.464;-0.150;2023-04-24T00:31:07;100520.09;;;18.42;42.57
49063;BME280;34876;51.464;-0.150;2023-04-24T00:33:37;100523.55;;;18.44;42.55
49063;BME280;34876;51.464;-0.150;2023-04-24T00:36:06;100527.38;;;18.43;42.56
49063;BME280;34876;51.464;-0.150;2023-04-24T00:38:34;100525.88;;;18.44;42.55
49063;BME280;34876;51.464;-0.150;2023-04-24T00:41:03;100529.76;;;18.42;42.58
49063;BME280;34876;51.464;-0.150;2023-04-24T00:43:33;100530.93;;;18.44;42.54
49063;BME280;34876;51.464;-0.150;2023-04-24T00:46:01;100533.07;;;18.43;42.57
49063;BME280;34876;51.464;-0.150;2023-04-24T00:48:31;100535.95;;;18.43;42.69
49063;BME280;34876;51.464;-0.150;2023-04-24T00:51:00;100535.17;;;18.43;42.57
49063;BME280;34876;51.464;-0.150;2023-04-24T00:53:30;100539.37;;;18.45;42.53
49063;BME280;34876;51.464;-0.150;2023-04-24T00:56:00;100539.27;;;18.44;42.55
49063;BME280;34876;51.464;-0.150;2023-04-24T00:58:31;100541.91;;;18.45;42.55
49063;BME280;34876;51.464;-0.150;2023-04-24T01:01:00;100541.99;;;18.45;42.50
49063;BME280;34876;51.464;-0.150;2023-04-24T01:03:30;100541.71;;;18.45;42.53
49063;BME280;34876;51.464;-0.150;2023-04-24T01:06:01;100540.25;;;18.44;42.52
49063;BME280;34876;51.464;-0.150;2023-04-24T01:08:31;100539.11;;;18.45;42.48
49063;BME280;34876;51.464;-0.150;2023-04-24T01:11:03;100540.17;;;18.44;42.52
49063;BME280;34876;51.464;-0.150;2023-04-24T01:13:34;100534.84;;;18.44;42.49
49063;BME280;34876;51.464;-0.150;2023-04-24T01:16:03;100543.77;;;18.45;42.48
49063;BME280;34876;51.464;-0.150;2023-04-24T01:18:33;100555.13;;;18.46;42.45
49063;BME280;34876;51.464;-0.150;2023-04-24T01:21:04;100559.63;;;18.44;42.49
49063;BME280;34876;51.464;-0.150;2023-04-24T01:23:33;100557.40;;;18.43;42.52
49063;BME280;34876;51.464;-0.150;2023-04-24T01:26:02;100559.31;;;18.47;42.44
49063;BME280;34876;51.464;-0.150;2023-04-24T01:28:32;100559.25;;;18.46;42.49
49063;BME280;34876;51.464;-0.150;2023-04-24T01:31:01;100557.26;;;18.47;42.43
49063;BME280;34876;51.464;-0.150;2023-04-24T01:33:34;100552.64;;;18.45;42.47
49063;BME280;34876;51.464;-0.150;2023-04-24T01:36:03;100551.14;;;18.46;42.44
49063;BME280;34876;51.464;-0.150;2023-04-24T01:38:32;100550.17;;;18.45;42.48
49063;BME280;34876;51.464;-0.150;2023-04-24T01:41:01;100550.12;;;18.43;42.50
49063;BME280;34876;51.464;-0.150;2023-04-24T01:43:32;100548.67;;;18.44;42.46
49063;BME280;34876;51.464;-0.150;2023-04-24T01:46:01;100550.37;;;18.43;42.48
49063;BME280;34876;51.464;-0.150;2023-04-24T01:48:31;100551.00;;;18.44;42.48
49063;BME280;34876;51.464;-0.150;2023-04-24T01:51:01;100552.18;;;18.43;42.47
49063;BME280;34876;51.464;-0.150;2023-04-24T01:53:31;100554.83;;;18.43;42.49
49063;BME280;34876;51.464;-0.150;2023-04-24T01:56:01;100558.27;;;18.41;42.50
49063;BME280;34876;51.464;-0.150;2023-04-24T01:58:32;100564.34;;;18.43;42.47
49063;BME280;34876;51.464;-0.150;2023-04-24T02:01:02;100568.49;;;18.41;42.51
49063;BME280;34876;51.464;-0.150;2023-04-24T02:03:31;100574.11;;;18.43;42.45
49063;BME280;34876;51.464;-0.150;2023-04-24T02:06:01;100570.89;;;18.43;42.45
49063;BME280;34876;51.464;-0.150;2023-04-24T02:08:31;100569.84;;;18.42;42.50
49063;BME280;34876;51.464;-0.150;2023-04-24T02:11:00;100570.75;;;18.43;42.47
49063;BME280;34876;51.464;-0.150;2023-04-24T02:13:30;100572.95;;;18.41;42.49
49063;BME280;34876;51.464;-0.150;2023-04-24T02:16:00;100571.88;;;18.41;42.51
49063;BME280;34876;51.464;-0.150;2023-04-24T02:18:29;100576.56;;;18.43;42.46
49063;BME280;34876;51.464;-0.150;2023-04-24T02:20:58;100576.88;;;18.42;42.50
49063;BME280;34876;51.464;-0.150;2023-04-24T02:23:28;100579.96;;;18.41;42.51
49063;BME280;34876;51.464;-0.150;2023-04-24T02:25:57;100577.01;;;18.43;42.48
49063;BME280;34876;51.464;-0.150;2023-04-24T02:28:26;100574.75;;;18.40;42.51
49063;BME280;34876;51.464;-0.150;2023-04-24T02:30:55;100576.28;;;18.41;42.47
49063;BME280;34876;51.464;-0.150;2023-04-24T02:33:24;100584.93;;;18.41;42.45
49063;BME280;34876;51.464;-0.150;2023-04-24T02:35:53;100595.29;;;18.41;42.46
49063;BME280;34876;51.464;-0.150;2023-04-24T02:38:23;100601.20;;;18.41;42.48
49063;BME280;34876;51.464;-0.150;2023-04-24T02:40:51;100603.52;;;18.41;42.48
49063;BME280;34876;51.464;-0.150;2023-04-24T02:43:21;100606.52;;;18.41;42.47
49063;BME280;34876;51.464;-0.150;2023-04-24T02:45:51;100606.91;;;18.41;42.45
49063;BME280;34876;51.464;-0.150;2023-04-24T02:48:20;100607.00;;;18.41;42.43
49063;BME280;34876;51.464;-0.150;2023-04-24T02:50:50;100603.69;;;18.40;42.45
49063;BME280;34876;51.464;-0.150;2023-04-24T02:53:19;100609.67;;;18.40;42.46
49063;BME280;34876;51.464;-0.150;2023-04-24T02:55:48;100613.16;;;18.43;42.39
49063;BME280;34876;51.464;-0.150;2023-04-24T02:58:17;100619.94;;;18.42;42.40
49063;BME280;34876;51.464;-0.150;2023-04-24T03:00:47;100623.63;;;18.40;42.43
49063;BME280;34876;51.464;-0.150;2023-04-24T03:03:16;100624.53;;;18.42;42.41
49063;BME280;34876;51.464;-0.150;2023-04-24T03:05:45;100626.67;;;18.41;42.43
49063;BME280;34876;51.464;-0.150;2023-04-24T03:08:14;100628.90;;;18.41;42.42
49063;BME280;34876;51.464;-0.150;2023-04-24T03:10:43;100627.32;;;18.40;42.40
49063;BME280;34876;51.464;-0.150;2023-04-24T03:13:12;100634.08;;;18.40;42.39
49063;BME280;34876;51.464;-0.150;2023-04-24T03:15:42;100636.96;;;18.43;42.40
49063;BME280;34876;51.464;-0.150;2023-04-24T03:18:11;100639.83;;;18.42;42.37
49063;BME280;34876;51.464;-0.150;2023-04-24T03:20:40;100638.45;;;18.43;42.36
49063;BME280;34876;51.464;-0.150;2023-04-24T03:23:10;100639.40;;;18.42;42.42
49063;BME280;34876;51.464;-0.150;2023-04-24T03:25:39;100643.26;;;18.41;42.43
49063;BME280;34876;51.464;-0.150;2023-04-24T03:28:08;100644.35;;;18.44;42.32
49063;BME280;34876;51.464;-0.150;2023-04-24T03:30:38;100644.17;;;18.42;42.37
49063;BME280;34876;51.464;-0.150;2023-04-24T03:33:07;100648.76;;;18.40;42.39
49063;BME280;34876;51.464;-0.150;2023-04-24T03:35:36;100645.97;;;18.44;42.27
49063;BME280;34876;51.464;-0.150;2023-04-24T03:38:05;100648.57;;;18.42;42.34
49063;BME280;34876;51.464;-0.150;2023-04-24T03:40:33;100649.91;;;18.40;42.35
49063;BME280;34876;51.464;-0.150;2023-04-24T03:43:03;100655.35;;;18.42;42.32
49063;BME280;34876;51.464;-0.150;2023-04-24T03:45:32;100658.32;;;18.43;42.27
49063;BME280;34876;51.464;-0.150;2023-04-24T03:48:02;100659.86;;;18.40;42.33
49063;BME280;34876;51.464;-0.150;2023-04-24T03:50:31;100663.53;;;18.40;42.29
49063;BME280;34876;51.464;-0.150;2023-04-24T03:52:59;100667.11;;;18.41;42.30
49063;BME280;34876;51.464;-0.150;2023-04-24T03:55:28;100670.32;;;18.42;42.24
49063;BME280;34876;51.464;-0.150;2023-04-24T03:57:57;100674.10;;;18.43;42.25
49063;BME280;34876;51.464;-0.150;2023-04-24T04:00:27;100677.94;;;18.43;42.20
49063;BME280;34876;51.464;-0.150;2023-04-24T04:02:59;100678.79;;;18.42;42.24
49063;BME280;34876;51.464;-0.150;2023-04-24T04:05:28;100681.93;;;18.42;42.21
49063;BME280;34876;51.464;-0.150;2023-04-24T04:07:57;100687.08;;;18.42;42.18
49063;BME280;34876;51.464;-0.150;2023-04-24T04:10:26;100689.43;;;18.39;42.24
49063;BME280;34876;51.464;-0.150;2023-04-24T04:12:55;100693.60;;;18.41;42.16
49063;BME280;34876;51.464;-0.150;2023-04-24T04:15:25;100693.52;;;18.41;42.21
49063;BME280;34876;51.464;-0.150;2023-04-24T04:17:54;100695.36;;;18.41;42.18
49063;BME280;34876;51.464;-0.150;2023-04-24T04:20:23;100699.53;;;18.38;42.27
49063;BME280;34876;51.464;-0.150;2023-04-24T04:22:52;100703.25;;;18.40;42.22
49063;BME280;34876;51.464;-0.150;2023-04-24T04:25:21;100712.03;;;18.41;42.16
49063;BME280;34876;51.464;-0.150;2023-04-24T04:27:51;100712.77;;;18.40;42.21
49063;BME280;34876;51.464;-0.150;2023-04-24T04:30:21;100714.61;;;18.41;42.16
49063;BME280;34876;51.464;-0.150;2023-04-24T04:32:50;100723.70;;;18.43;42.12
49063;BME280;34876;51.464;-0.150;2023-04-24T04:35:19;100728.12;;;18.43;42.09
49063;BME280;34876;51.464;-0.150;2023-04-24T04:37:48;100730.62;;;18.39;42.19
49063;BME280;34876;51.464;-0.150;2023-04-24T04:40:17;100735.54;;;18.38;42.24
49063;BME280;34876;51.464;-0.150;2023-04-24T04:42:46;100740.56;;;18.39;42.26
49063;BME280;34876;51.464;-0.150;2023-04-24T04:45:19;100741.11;;;18.40;42.20
49063;BME280;34876;51.464;-0.150;2023-04-24T04:47:47;100740.20;;;18.39;42.20
49063;BME280;34876;51.464;-0.150;2023-04-24T04:50:17;100739.68;;;18.38;42.19
49063;BME280;34876;51.464;-0.150;2023-04-24T04:52:46;100747.00;;;18.41;42.16
49063;BME280;34876;51.464;-0.150;2023-04-24T04:55:16;100753.34;;;18.40;42.12
49063;BME280;34876;51.464;-0.150;2023-04-24T04:57:46;100752.20;;;18.41;42.12
49063;BME280;34876;51.464;-0.150;2023-04-24T05:00:15;100755.12;;;18.40;42.16
49063;BME280;34876;51.464;-0.150;2023-04-24T05:02:45;100761.39;;;18.42;42.09
49063;BME280;34876;51.464;-0.150;2023-04-24T05:05:14;100762.07;;;18.39;42.15
49063;BME280;34876;51.464;-0.150;2023-04-24T05:07:43;100766.72;;;18.38;42.13
49063;BME280;34876;51.464;-0.150;2023-04-24T05:10:12;100772.71;;;18.39;42.13
49063;BME280;34876;51.464;-0.150;2023-04-24T05:12:40;100775.92;;;18.40;42.10
49063;BME280;34876;51.464;-0.150;2023-04-24T05:15:10;100779.04;;;18.40;42.07
49063;BME280;34876;51.464;-0.150;2023-04-24T05:17:39;100782.39;;;18.39;42.08
49063;BME280;34876;51.464;-0.150;2023-04-24T05:20:08;100781.95;;;18.38;42.12
49063;BME280;34876;51.464;-0.150;2023-04-24T05:22:37;100782.57;;;18.40;42.05
49063;BME280;34876;51.464;-0.150;2023-04-24T05:25:07;100785.37;;;18.39;42.06
49063;BME280;34876;51.464;-0.150;2023-04-24T05:27:36;100788.82;;;18.40;42.03
49063;BME280;34876;51.464;-0.150;2023-04-24T05:30:07;100791.23;;;18.38;42.07
49063;BME280;34876;51.464;-0.150;2023-04-24T05:32:36;100797.44;;;18.39;42.07
49063;BME280;34876;51.464;-0.150;2023-04-24T05:35:06;100795.72;;;18.38;42.04
49063;BME280;34876;51.464;-0.150;2023-04-24T05:37:35;100792.42;;;18.38;42.07
49063;BME280;34876;51.464;-0.150;2023-04-24T05:40:05;100791.47;;;18.38;42.03
49063;BME280;34876;51.464;-0.150;2023-04-24T05:42:34;100792.40;;;18.40;42.00
49063;BME280;34876;51.464;-0.150;2023-04-24T05:45:05;100794.17;;;18.40;41.97
49063;BME280;34876;51.464;-0.150;2023-04-24T05:47:35;100798.92;;;18.38;42.04
49063;BME280;34876;51.464;-0.150;2023-04-24T05:50:05;100802.88;;;18.38;42.03
49063;BME280;34876;51.464;-0.150;2023-04-24T05:52:35;100806.05;;;18.40;41.97
49063;BME280;34876;51.464;-0.150;2023-04-24T05:55:05;100806.47;;;18.40;41.96
49063;BME280;34876;51.464;-0.150;2023-04-24T05:57:34;100810.33;;;18.39;41.98
49063;BME280;34876;51.464;-0.150;2023-04-24T06:00:04;100810.05;;;18.37;41.98
49063;BME280;34876;51.464;-0.150;2023-04-24T06:02:34;100811.81;;;18.36;42.04
49063;BME280;34876;51.464;-0.150;2023-04-24T06:05:04;100818.40;;;17.72;42.23
49063;BME280;34876;51.464;-0.150;2023-04-24T06:07:33;100815.41;;;18.09;42.61
49063;BME280;34876;51.464;-0.150;2023-04-24T06:10:02;100818.86;;;17.97;42.84
49063;BME280;34876;51.464;-0.150;2023-04-24T06:12:31;100815.72;;;18.02;42.59
49063;BME280;34876;51.464;-0.150;2023-04-24T06:15:01;100822.66;;;18.27;42.12
49063;BME280;34876;51.464;-0.150;2023-04-24T06:17:29;100826.60;;;18.32;41.98
49063;BME280;34876;51.464;-0.150;2023-04-24T06:19:58;100823.63;;;18.28;41.99
49063;BME280;34876;51.464;-0.150;2023-04-24T06:22:28;100829.01;;;18.34;41.90
49063;BME280;34876;51.464;-0.150;2023-04-24T06:24:57;100836.74;;;18.28;41.94
49063;BME280;34876;51.464;-0.150;2023-04-24T06:27:28;100841.50;;;18.32;41.89
49063;BME280;34876;51.464;-0.150;2023-04-24T06:29:57;100841.70;;;18.25;41.87
49063;BME280;34876;51.464;-0.150;2023-04-24T06:32:27;100840.42;;;18.31;41.84
49063;BME280;34876;51.464;-0.150;2023-04-24T06:34:56;100843.40;;;18.36;41.65
49063;BME280;34876;51.464;-0.150;2023-04-24T06:37:26;100845.98;;;18.41;41.57
49063;BME280;34876;51.464;-0.150;2023-04-24T06:40:02;100853.00;;;18.36;41.60
49063;BME280;34876;51.464;-0.150;2023-04-24T06:42:37;100854.27;;;18.39;41.52
49063;BME280;34876;51.464;-0.150;2023-04-24T06:45:07;100852.24;;;18.41;41.48
49063;BME280;34876;51.464;-0.150;2023-04-24T06:47:37;100849.95;;;18.41;41.48
49063;BME280;34876;51.464;-0.150;2023-04-24T06:50:08;100845.52;;;18.48;41.33
49063;BME280;34876;51.464;-0.150;2023-04-24T06:52:38;100838.35;;;19.28;39.61
49063;BME280;34876;51.464;-0.150;2023-04-24T06:55:08;100835.12;;;19.68;38.67
49063;BME280;34876;51.464;-0.150;2023-04-24T06:57:37;100835.37;;;19.82;38.36
49063;BME280;34876;51.464;-0.150;2023-04-24T07:00:09;100842.20;;;19.90;38.22
49063;BME280;34876;51.464;-0.150;2023-04-24T07:02:39;100843.86;;;20.02;37.91
49063;BME280;34876;51.464;-0.150;2023-04-24T07:05:07;100845.43;;;20.10;37.77
49063;BME280;34876;51.464;-0.150;2023-04-24T07:07:37;100848.03;;;20.34;37.24
49063;BME280;34876;51.464;-0.150;2023-04-24T07:10:06;100848.65;;;20.51;36.83
49063;BME280;34876;51.464;-0.150;2023-04-24T07:12:36;100846.15;;;20.72;36.32
49063;BME280;34876;51.464;-0.150;2023-04-24T07:15:07;100849.90;;;20.77;36.16
49063;BME280;34876;51.464;-0.150;2023-04-24T07:17:37;100846.73;;;20.73;36.18
49063;BME280;34876;51.464;-0.150;2023-04-24T07:20:07;100850.42;;;19.84;37.96
49063;BME280;34876;51.464;-0.150;2023-04-24T07:22:37;100850.33;;;19.51;38.70
49063;BME280;34876;51.464;-0.150;2023-04-24T07:25:07;100850.79;;;19.51;38.66
49063;BME280;34876;51.464;-0.150;2023-04-24T07:27:37;100848.43;;;19.98;37.75
49063;BME280;34876;51.464;-0.150;2023-04-24T07:30:07;100845.16;;;20.16;37.31
49063;BME280;34876;51.464;-0.150;2023-04-24T07:32:36;100846.49;;;20.09;37.44
49063;BME280;34876;51.464;-0.150;2023-04-24T07:35:08;100850.28;;;19.93;37.76
49063;BME280;34876;51.464;-0.150;2023-04-24T07:37:37;100849.82;;;19.70;38.22
49063;BME280;34876;51.464;-0.150;2023-04-24T07:40:07;100852.81;;;20.32;36.89
49063;BME280;34876;51.464;-0.150;2023-04-24T07:42:38;100856.22;;;20.60;36.37
49063;BME280;34876;51.464;-0.150;2023-04-24T07:45:08;100860.35;;;20.90;33.34
49063;BME280;34876;51.464;-0.150;2023-04-24T07:47:38;100862.06;;;20.70;36.02
49063;BME280;34876;51.464;-0.150;2023-04-24T07:50:07;100861.75;;;20.50;36.43
49063;BME280;34876;51.464;-0.150;2023-04-24T07:52:37;100864.38;;;20.09;37.30
49063;BME280;34876;51.464;-0.150;2023-04-24T07:55:06;100869.37;;;19.68;38.07
49063;BME280;34876;51.464;-0.150;2023-04-24T07:57:36;100868.85;;;19.55;38.31
49063;BME280;34876;51.464;-0.150;2023-04-24T08:00:06;100872.87;;;19.48;38.47
49063;BME280;34876;51.464;-0.150;2023-04-24T08:02:35;100877.14;;;19.39;38.62
49063;BME280;34876;51.464;-0.150;2023-04-24T08:05:06;100881.61;;;19.38;38.60
49063;BME280;34876;51.464;-0.150;2023-04-24T08:07:34;100876.81;;;19.85;37.54
49063;BME280;34876;51.464;-0.150;2023-04-24T08:10:05;100880.57;;;20.18;33.91
49063;BME280;34876;51.464;-0.150;2023-04-24T08:12:35;100882.87;;;20.46;36.17
49063;BME280;34876;51.464;-0.150;2023-04-24T08:15:05;100875.49;;;20.52;36.01
49063;BME280;34876;51.464;-0.150;2023-04-24T08:17:35;100881.30;;;20.01;37.04
49063;BME280;34876;51.464;-0.150;2023-04-24T08:20:06;100887.64;;;19.47;38.13
49063;BME280;34876;51.464;-0.150;2023-04-24T08:22:36;100884.33;;;19.60;38.00
49063;BME280;34876;51.464;-0.150;2023-04-24T08:25:07;100883.91;;;19.53;38.14
49063;BME280;34876;51.464;-0.150;2023-04-24T08:27:36;100878.45;;;19.46;38.02
49063;BME280;34876;51.464;-0.150;2023-04-24T08:30:07;100883.27;;;19.25;38.48
49063;BME280;34876;51.464;-0.150;2023-04-24T08:32:36;100887.45;;;19.54;37.62
49063;BME280;34876;51.464;-0.150;2023-04-24T08:35:05;100884.95;;;20.20;36.74
49063;BME280;34876;51.464;-0.150;2023-04-24T08:37:36;100890.51;;;19.77;37.56
49063;BME280;34876;51.464;-0.150;2023-04-24T08:40:12;100896.16;;;19.55;37.95
49063;BME280;34876;51.464;-0.150;2023-04-24T08:42:42;100899.70;;;19.30;36.03
49063;BME280;34876;51.464;-0.150;2023-04-24T08:45:13;100889.01;;;19.68;37.86
49063;BME280;34876;51.464;-0.150;2023-04-24T08:47:42;100892.56;;;19.61;37.95
49063;BME280;34876;51.464;-0.150;2023-04-24T08:50:12;100893.41;;;20.24;36.61
49063;BME280;34876;51.464;-0.150;2023-04-24T08:52:43;100894.62;;;20.29;36.39
49063;BME280;34876;51.464;-0.150;2023-04-24T08:55:12;100900.17;;;19.83;37.46
49063;BME280;34876;51.464;-0.150;2023-04-24T08:57:41;100904.18;;;19.47;38.22
49063;BME280;34876;51.464;-0.150;2023-04-24T09:00:10;100906.04;;;19.59;37.99
49063;BME280;34876;51.464;-0.150;2023-04-24T09:02:42;100904.40;;;19.29;38.74
49063;BME280;34876;51.464;-0.150;2023-04-24T09:05:13;100902.86;;;19.31;38.68
49063;BME280;34876;51.464;-0.150;2023-04-24T09:07:45;100904.47;;;19.13;37.00
49063;BME280;34876;51.464;-0.150;2023-04-24T09:10:15;100899.81;;;19.24;38.62
49063;BME280;34876;51.464;-0.150;2023-04-24T09:12:45;100899.31;;;19.93;35.73
49063;BME280;34876;51.464;-0.150;2023-04-24T09:15:15;100899.64;;;19.92;37.30
49063;BME280;34876;51.464;-0.150;2023-04-24T09:17:44;100904.08;;;19.48;38.17
49063;BME280;34876;51.464;-0.150;2023-04-24T09:20:13;100905.00;;;19.36;38.42
49063;BME280;34876;51.464;-0.150;2023-04-24T09:22:45;100908.72;;;19.79;37.48
49063;BME280;34876;51.464;-0.150;2023-04-24T09:25:14;100914.12;;;19.21;38.62
49063;BME280;34876;51.464;-0.150;2023-04-24T09:27:45;100914.95;;;19.29;38.53
49063;BME280;34876;51.464;-0.150;2023-04-24T09:30:21;100915.61;;;19.36;38.46
49063;BME280;34876;51.464;-0.150;2023-04-24T09:33:10;100915.37;;;19.62;37.85
49063;BME280;34876;51.464;-0.150;2023-04-24T09:35:41;100919.08;;;19.65;37.70
49063;BME280;34876;51.464;-0.150;2023-04-24T09:38:10;100923.02;;;19.24;36.02
49063;BME280;34876;51.464;-0.150;2023-04-24T09:40:39;100926.86;;;19.27;38.64
49063;BME280;34876;51.464;-0.150;2023-04-24T09:43:11;100927.57;;;19.11;39.08
49063;BME280;34876;51.464;-0.150;2023-04-24T09:45:40;100936.29;;;19.03;37.21
49063;BME280;34876;51.464;-0.150;2023-04-24T09:48:09;100940.60;;;19.05;39.13
49063;BME280;34876;51.464;-0.150;2023-04-24T09:50:38;100945.01;;;18.98;39.56
49063;BME280;34876;51.464;-0.150;2023-04-24T09:53:07;100946.03;;;19.07;39.20
49063;BME280;34876;51.464;-0.150;2023-04-24T09:55:39;100946.50;;;19.00;39.32
49063;BME280;34876;51.464;-0.150;2023-04-24T09:58:13;100952.74;;;18.76;39.69
49063;BME280;34876;51.464;-0.150;2023-04-24T10:00:42;100954.03;;;18.92;39.57
49063;BME280;34876;51.464;-0.150;2023-04-24T10:03:18;100955.62;;;18.90;39.61
49063;BME280;34876;51.464;-0.150;2023-04-24T10:05:47;100958.36;;;18.97;39.43
49063;BME280;34876;51.464;-0.150;2023-04-24T10:08:16;100961.88;;;18.94;39.42
49063;BME280;34876;51.464;-0.150;2023-04-24T10:10:46;100961.72;;;18.74;37.08
49063;BME280;34876;51.464;-0.150;2023-04-24T10:13:15;100965.51;;;18.44;40.23
49063;BME280;34876;51.464;-0.150;2023-04-24T10:15:46;100965.08;;;18.32;40.71
49063;BME280;34876;51.464;-0.150;2023-04-24T10:18:17;100959.58;;;18.76;39.84
49063;BME280;34876;51.464;-0.150;2023-04-24T10:20:50;100956.93;;;18.82;39.68
49063;BME280;34876;51.464;-0.150;2023-04-24T10:23:20;100957.67;;;18.91;39.47
49063;BME280;34876;51.464;-0.150;2023-04-24T10:25:50;100961.05;;;18.90;39.50
49063;BME280;34876;51.464;-0.150;2023-04-24T10:28:21;100965.73;;;18.90;39.48
49063;BME280;34876;51.464;-0.150;2023-04-24T10:30:50;100969.12;;;18.70;39.59
49063;BME280;34876;51.464;-0.150;2023-04-24T10:33:21;100969.99;;;18.83;39.58
49063;BME280;34876;51.464;-0.150;2023-04-24T10:35:51;100971.95;;;18.84;39.48
49063;BME280;34876;51.464;-0.150;2023-04-24T10:38:24;100974.50;;;18.82;39.60
49063;BME280;34876;51.464;-0.150;2023-04-24T10:41:06;100972.75;;;18.80;39.69
49063;BME280;34876;51.464;-0.150;2023-04-24T10:43:36;100974.30;;;18.75;39.67
49063;BME280;34876;51.464;-0.150;2023-04-24T10:46:09;100975.65;;;18.68;39.69
49063;BME280;34876;51.464;-0.150;2023-04-24T10:48:42;100971.95;;;18.81;39.55
49063;BME280;34876;51.464;-0.150;2023-04-24T10:51:12;100975.23;;;18.60;39.54
49063;BME280;34876;51.464;-0.150;2023-04-24T10:53:42;100973.13;;;18.45;40.18
49063;BME280;34876;51.464;-0.150;2023-04-24T10:56:12;100972.58;;;18.79;39.59
49063;BME280;34876;51.464;-0.150;2023-04-24T10:58:43;100969.04;;;18.77;38.93
49063;BME280;34876;51.464;-0.150;2023-04-24T11:01:24;100974.22;;;18.48;39.65
49063;BME280;34876;51.464;-0.150;2023-04-24T11:03:55;100971.67;;;18.88;39.40
49063;BME280;34876;51.464;-0.150;2023-04-24T11:06:29;100974.37;;;18.88;39.26
49063;BME280;34876;51.464;-0.150;2023-04-24T11:09:03;100980.53;;;18.94;39.13
49063;BME280;34876;51.464;-0.150;2023-04-24T11:11:38;100988.72;;;18.46;36.89
49063;BME280;34876;51.464;-0.150;2023-04-24T11:14:15;100991.90;;;18.65;36.13
49063;BME280;34876;51.464;-0.150;2023-04-24T11:16:46;100991.24;;;18.77;39.55
49063;BME280;34876;51.464;-0.150;2023-04-24T11:19:23;100988.48;;;19.00;38.92
49063;BME280;34876;51.464;-0.150;2023-04-24T11:22:01;100988.57;;;18.93;39.04
49063;BME280;34876;51.464;-0.150;2023-04-24T11:24:49;100988.67;;;18.79;38.96
49063;BME280;34876;51.464;-0.150;2023-04-24T11:27:23;100994.04;;;18.77;39.40
49063;BME280;34876;51.464;-0.150;2023-04-24T11:30:00;100991.35;;;18.86;39.23
49063;BME280;34876;51.464;-0.150;2023-04-24T11:32:33;100996.14;;;18.87;39.42
49063;BME280;34876;51.464;-0.150;2023-04-24T11:35:05;100995.91;;;18.92;39.12
49063;BME280;34876;51.464;-0.150;2023-04-24T11:37:37;101000.48;;;18.85;39.23
49063;BME280;34876;51.464;-0.150;2023-04-24T11:40:09;101001.00;;;19.02;39.05
49063;BME280;34876;51.464;-0.150;2023-04-24T11:42:40;100997.24;;;19.04;38.95
49063;BME280;34876;51.464;-0.150;2023-04-24T11:45:11;100997.26;;;19.04;38.92
49063;BME280;34876;51.464;-0.150;2023-04-24T11:47:41;100995.11;;;18.83;39.25
49063;BME280;34876;51.464;-0.150;2023-04-24T11:50:12;100998.20;;;18.87;39.22
49063;BME280;34876;51.464;-0.150;2023-04-24T11:52:44;100995.19;;;18.92;39.15
49063;BME280;34876;51.464;-0.150;2023-04-24T11:55:29;101000.56;;;18.45;36.97
49063;BME280;34876;51.464;-0.150;2023-04-24T11:57:59;100997.33;;;18.75;39.37
49063;BME280;34876;51.464;-0.150;2023-04-24T12:00:30;100995.19;;;18.80;39.27
49063;BME280;34876;51.464;-0.150;2023-04-24T12:03:05;100995.16;;;18.91;39.08
49063;BME280;34876;51.464;-0.150;2023-04-24T12:05:35;101000.03;;;18.81;39.14
49063;BME280;34876;51.464;-0.150;2023-04-24T12:08:05;100990.88;;;18.97;38.95
49063;BME280;34876;51.464;-0.150;2023-04-24T12:10:40;100987.50;;;19.06;38.63
49063;BME280;34876;51.464;-0.150;2023-04-24T12:13:10;100981.74;;;18.85;39.12
49063;BME280;34876;51.464;-0.150;2023-04-24T12:15:40;100982.15;;;18.26;40.10
49063;BME280;34876;51.464;-0.150;2023-04-24T12:18:12;100978.72;;;18.48;39.66
49063;BME280;34876;51.464;-0.150;2023-04-24T12:20:41;100979.12;;;18.76;39.34
49063;BME280;34876;51.464;-0.150;2023-04-24T12:23:09;100977.25;;;18.93;38.93
49063;BME280;34876;51.464;-0.150;2023-04-24T12:25:39;100983.05;;;18.29;40.20
49063;BME280;34876;51.464;-0.150;2023-04-24T12:28:10;100980.74;;;18.68;39.47
49063;BME280;34876;51.464;-0.150;2023-04-24T12:30:41;100968.98;;;18.93;38.98
49063;BME280;34876;51.464;-0.150;2023-04-24T12:33:11;100967.18;;;18.64;39.43
49063;BME280;34876;51.464;-0.150;2023-04-24T12:35:41;100965.62;;;18.81;39.15
49063;BME280;34876;51.464;-0.150;2023-04-24T12:38:12;100969.40;;;18.79;39.23
49063;BME280;34876;51.464;-0.150;2023-04-24T12:40:42;100968.25;;;18.87;38.89
49063;BME280;34876;51.464;-0.150;2023-04-24T12:43:14;100967.91;;;18.98;38.85
49063;BME280;34876;51.464;-0.150;2023-04-24T12:45:44;100968.13;;;18.77;37.40
49063;BME280;34876;51.464;-0.150;2023-04-24T12:48:13;100970.46;;;18.56;39.63
49063;BME280;34876;51.464;-0.150;2023-04-24T12:50:43;100967.93;;;18.32;40.02
49063;BME280;34876;51.464;-0.150;2023-04-24T12:53:14;100964.71;;;18.19;40.35
49063;BME280;34876;51.464;-0.150;2023-04-24T12:55:44;100966.23;;;18.10;38.29
49063;BME280;34876;51.464;-0.150;2023-04-24T12:58:14;100958.92;;;18.40;39.84